Time;durP1;ratioP1;P1;durP2;ratioP2;P2;SDS_P1;SDS_P2;PMS_P1;PMS_P2;Temp;Humidity;BMP_temperature;BMP_pressure;BME280_temperature;BME280_humidity;BME280_pressure;Samples;Min_cycle;Max_cycle;Signal;HPM_P1;HPM_P2
2022/12/21 00:04:57;;;;;;;148.07;61.67;;;;;;;-3.48;100.00;99280.52;4183862;83;20999;-85
2022/12/21 00:11:00;;;;;;;172.03;70.63;;;;;;;-3.54;100.00;99265.01;4153444;84;21528;-84
2022/12/21 00:17:01;;;;;;;175.17;76.30;;;;;;;-3.57;100.00;99248.17;4168006;84;21106;-85
2022/12/21 00:23:03;;;;;;;158.87;68.13;;;;;;;-3.63;100.00;99239.91;4177907;84;21548;-84
2022/12/21 00:29:05;;;;;;;175.77;74.50;;;;;;;-3.83;100.00;99253.41;4168602;84;21308;-85
2022/12/21 00:35:07;;;;;;;165.20;67.80;;;;;;;-3.86;100.00;99247.27;4159860;84;20993;-85
2022/12/21 00:41:11;;;;;;;155.93;63.23;;;;;;;-3.94;100.00;99235.81;4086868;84;22028;-85
2022/12/21 00:47:13;;;;;;;152.13;68.40;;;;;;;-3.94;100.00;99245.17;4083677;85;21858;-84
2022/12/21 00:53:16;;;;;;;158.77;68.77;;;;;;;-3.97;100.00;99248.92;4085565;85;21024;-85
2022/12/21 00:59:18;;;;;;;184.37;77.20;;;;;;;-4.06;100.00;99255.92;4085644;85;21605;-85
2022/12/21 01:05:20;;;;;;;173.13;72.57;;;;;;;-4.08;100.00;99257.53;4085645;85;21068;-85
2022/12/21 01:11:24;;;;;;;193.13;85.03;;;;;;;-4.15;100.00;99248.21;4151020;84;22008;-85
2022/12/21 01:17:26;;;;;;;184.97;82.17;;;;;;;-4.15;100.00;99234.28;4098976;85;21036;-85
2022/12/21 01:23:28;;;;;;;209.37;92.93;;;;;;;-4.13;100.00;99224.66;4152854;84;21988;-85
2022/12/21 01:29:29;;;;;;;200.33;86.73;;;;;;;-4.03;100.00;99220.08;4153461;84;21019;-85
2022/12/21 01:35:32;;;;;;;175.63;76.67;;;;;;;-3.92;100.00;99214.14;4156621;84;20999;-85
2022/12/21 01:41:35;;;;;;;170.23;71.80;;;;;;;-3.89;100.00;99186.31;4135307;84;21859;-86
2022/12/21 01:47:42;;;;;;;167.30;75.03;;;;;;;-3.89;100.00;99175.61;4131513;84;21000;-84
2022/12/21 01:53:52;;;;;;;209.07;92.30;;;;;;;-3.90;100.00;99183.91;4129606;84;21052;-85
2022/12/21 01:59:58;;;;;;;222.43;98.60;;;;;;;-3.83;100.00;99183.86;4131059;84;22180;-85
2022/12/21 02:06:09;;;;;;;217.25;97.85;;;;;;;-3.74;100.00;99190.22;4128937;84;21004;-85
2022/12/21 02:12:14;;;;;;;250.63;109.57;;;;;;;-3.70;100.00;99166.39;4131359;84;21011;-85
2022/12/21 02:18:44;;;;;;;254.93;113.07;;;;;;;-3.63;100.00;99142.78;4130319;84;21549;-85
2022/12/21 02:25:39;;;;;;;244.23;111.47;;;;;;;-3.54;100.00;99142.47;4129502;84;21587;-85
2022/12/21 02:32:22;;;;;;;250.60;116.28;;;;;;;-3.55;100.00;99165.74;4132840;84;20970;-86
2022/12/21 02:38:41;;;;;;;254.73;113.40;;;;;;;-3.54;100.00;99145.92;4131962;84;20988;-85
2022/12/21 02:44:50;;;;;;;238.30;106.67;;;;;;;-3.49;100.00;99165.96;4129797;84;21027;-85
2022/12/21 02:50:55;;;;;;;255.23;111.87;;;;;;;-3.47;100.00;99149.09;4131747;84;21860;-85
2022/12/21 02:56:56;;;;;;;243.93;110.72;;;;;;;-3.46;100.00;99148.00;4132367;84;20972;-86
2022/12/21 03:03:49;;;;;;;252.93;114.93;;;;;;;-3.46;100.00;99143.21;4133350;84;20986;-87
2022/12/21 03:10:29;;;;;;;247.60;113.07;;;;;;;-3.43;100.00;99138.63;4129744;84;20991;-86
2022/12/21 03:16:50;;;;;;;249.53;112.23;;;;;;;-3.38;100.00;99137.23;4130154;84;21016;-85
2022/12/21 03:23:01;;;;;;;253.80;113.50;;;;;;;-3.32;100.00;99140.15;4129982;84;21108;-86
2022/12/21 03:29:06;;;;;;;246.70;110.30;;;;;;;-3.34;100.00;99131.06;4170364;83;21066;-85
2022/12/21 03:35:26;;;;;;;217.87;98.83;;;;;;;-3.39;100.00;99159.20;4156587;84;21046;-85
2022/12/21 03:41:35;;;;;;;240.77;105.73;;;;;;;-3.47;100.00;99173.71;4162072;84;21011;-85
2022/12/21 03:47:45;;;;;;;250.50;105.40;;;;;;;-3.58;100.00;99173.52;4150639;84;21038;-85
2022/12/21 03:53:59;;;;;;;241.87;107.17;;;;;;;-3.66;100.00;99161.55;4148575;84;21070;-85
2022/12/21 04:00:04;;;;;;;253.80;108.73;;;;;;;-3.75;100.00;99146.36;4113963;85;21071;-85
2022/12/21 04:06:12;;;;;;;222.57;98.77;;;;;;;-3.86;100.00;99159.02;4113868;85;21135;-85
2022/12/21 04:31:14;;;;;;;232.73;106.17;;;;;;;-4.23;100.00;99150.67;4148201;84;21047;-84
2022/12/21 04:37:30;;;;;;;220.10;99.30;;;;;;;-4.25;100.00;99150.14;4151630;84;21501;-85
2022/12/21 04:43:39;;;;;;;228.23;97.53;;;;;;;-4.30;100.00;99152.02;4128959;84;21028;-84
2022/12/21 04:49:41;;;;;;;223.43;95.20;;;;;;;-4.39;100.00;99153.16;4128935;84;21607;-84
2022/12/21 04:55:47;;;;;;;204.10;90.80;;;;;;;-4.54;100.00;99171.89;4132382;84;21051;-85
2022/12/21 05:01:48;;;;;;;221.23;92.60;;;;;;;-4.62;100.00;99178.36;4130340;84;21067;-84
2022/12/21 05:07:52;;;;;;;210.53;93.00;;;;;;;-4.62;100.00;99175.16;4131648;84;21266;-84
2022/12/21 05:13:54;;;;;;;218.57;93.50;;;;;;;-4.63;100.00;99181.55;4139629;84;21622;-85
2022/12/21 05:19:56;;;;;;;228.53;97.93;;;;;;;-4.66;100.00;99193.31;4132095;84;21092;-84
2022/12/21 05:25:57;;;;;;;228.43;96.03;;;;;;;-4.82;100.00;99178.67;4129614;84;21027;-85
2022/12/21 05:31:58;;;;;;;222.30;93.57;;;;;;;-4.92;100.00;99173.34;4133951;84;22543;-84
2022/12/21 05:37:59;;;;;;;229.50;96.17;;;;;;;-4.96;100.00;99170.14;4131652;84;21101;-83
2022/12/21 05:44:01;;;;;;;221.77;93.03;;;;;;;-5.03;100.00;99174.42;4166312;83;21071;-83
2022/12/21 05:50:04;;;;;;;210.30;88.17;;;;;;;-5.07;100.00;99166.70;4168116;84;21887;-84
2022/12/21 05:56:06;;;;;;;215.80;88.73;;;;;;;-5.10;100.00;99175.25;4165923;84;21027;-84
2022/12/21 06:02:08;;;;;;;212.80;86.63;;;;;;;-5.09;100.00;99177.39;4163508;84;21023;-84
2022/12/21 06:08:10;;;;;;;236.30;100.87;;;;;;;-5.05;100.00;99169.10;4172131;84;21026;-84
2022/12/21 06:14:12;;;;;;;219.67;93.77;;;;;;;-5.08;100.00;99173.13;4168026;84;21062;-84
2022/12/21 06:20:15;;;;;;;234.53;101.50;;;;;;;-5.08;100.00;99176.31;4136977;85;21025;-83
2022/12/21 06:26:19;;;;;;;216.20;93.27;;;;;;;-5.03;100.00;99171.75;4133303;85;21018;-84
2022/12/21 06:32:20;;;;;;;233.63;96.93;;;;;;;-5.05;100.00;99168.58;4127095;85;21934;-84
2022/12/21 06:38:23;;;;;;;255.00;108.00;;;;;;;-4.98;100.00;99174.42;4166721;84;21035;-83
2022/12/21 06:44:24;;;;;;;243.13;106.10;;;;;;;-5.01;100.00;99172.30;4188511;82;21002;-85
2022/12/21 06:50:25;;;;;;;242.37;105.03;;;;;;;-5.00;100.00;99161.90;4177481;84;22064;-83
2022/12/21 06:56:30;;;;;;;243.10;105.30;;;;;;;-5.00;100.00;99149.08;4177477;84;21456;-83
2022/12/21 07:02:32;;;;;;;254.93;106.07;;;;;;;-5.02;100.00;99144.53;4110929;84;21055;-84
2022/12/21 07:08:34;;;;;;;239.20;97.87;;;;;;;-5.02;100.00;99137.33;4129320;84;22360;-83
2022/12/21 07:14:35;;;;;;;239.03;102.80;;;;;;;-5.01;100.00;99144.78;4130647;84;21101;-83
2022/12/21 07:26:47;;;;;;;246.37;98.67;;;;;;;-4.91;100.00;99142.92;4099067;84;21046;-84
2022/12/21 07:32:48;;;;;;;242.23;106.57;;;;;;;-4.82;100.00;99141.28;4128406;84;21111;-84
2022/12/21 07:38:49;;;;;;;268.40;118.20;;;;;;;-4.66;100.00;99130.01;4124856;84;21068;-84
2022/12/21 07:44:51;;;;;;;281.33;130.53;;;;;;;-4.51;100.00;99127.27;4167349;84;22145;-84
2022/12/21 07:50:55;;;;;;;313.30;137.37;;;;;;;-4.35;100.00;99114.10;4167728;84;21067;-84
2022/12/21 07:56:57;;;;;;;320.80;144.10;;;;;;;-4.09;100.00;99101.40;4159909;84;21487;-83
2022/12/21 08:02:58;;;;;;;316.90;141.10;;;;;;;-3.91;100.00;99104.21;4174484;84;21586;-84
2022/12/21 08:08:59;;;;;;;327.57;143.33;;;;;;;-3.82;100.00;99095.07;4173664;83;21865;-85
2022/12/21 08:15:01;;;;;;;322.43;145.40;;;;;;;-3.65;100.00;99102.16;4164812;84;21071;-84
2022/12/21 08:21:04;;;;;;;293.57;138.93;;;;;;;-3.42;100.00;99099.55;4163221;83;21041;-84
2022/12/21 08:27:05;;;;;;;276.47;131.67;;;;;;;-3.14;100.00;99074.36;4169030;84;21035;-86
2022/12/21 08:33:06;;;;;;;271.73;131.57;;;;;;;-2.90;100.00;99075.17;4170857;84;20960;-84
2022/12/21 08:39:08;;;;;;;264.17;125.63;;;;;;;-2.75;100.00;99077.13;4187036;82;21961;-84
2022/12/21 08:45:12;;;;;;;270.93;122.73;;;;;;;-2.52;100.00;99082.22;4232653;82;20959;-84
2022/12/21 08:51:13;;;;;;;253.53;120.63;;;;;;;-2.36;100.00;99092.45;4202533;83;21055;-84
2022/12/21 08:57:15;;;;;;;238.30;115.47;;;;;;;-2.17;100.00;99073.69;4211802;83;21466;-85
2022/12/21 09:03:16;;;;;;;261.05;123.62;;;;;;;-2.05;100.00;99085.56;4205483;83;21502;-84
2022/12/21 09:09:18;;;;;;;246.10;121.10;;;;;;;-1.89;100.00;99090.16;4203311;83;21071;-85
2022/12/21 09:15:20;;;;;;;239.63;110.60;;;;;;;-1.73;100.00;99082.94;4202204;83;21144;-85
2022/12/21 09:21:23;;;;;;;297.42;138.88;;;;;;;-1.55;100.00;99076.48;4199983;83;21060;-84
2022/12/21 09:27:25;;;;;;;246.90;115.88;;;;;;;-1.45;100.00;99042.73;4185749;83;21069;-85
2022/12/21 09:33:27;;;;;;;236.82;111.45;;;;;;;-1.40;100.00;99058.77;4185198;83;21427;-84
2022/12/21 09:39:28;;;;;;;198.10;93.20;;;;;;;-1.31;100.00;99056.98;4203149;83;21027;-85
2022/12/21 09:46:04;;;;;;;187.07;87.47;;;;;;;-1.20;100.00;99070.48;4145525;84;21032;-86
2022/12/21 09:52:13;;;;;;;175.78;84.20;;;;;;;-1.09;100.00;99061.95;4141400;84;21657;-85
2022/12/21 09:58:35;;;;;;;178.68;83.25;;;;;;;-0.97;100.00;99070.31;4130705;84;21055;-84
2022/12/21 10:04:49;;;;;;;167.15;80.95;;;;;;;-0.81;100.00;99052.80;4128913;84;21508;-85
2022/12/21 10:11:21;;;;;;;155.87;75.70;;;;;;;-0.61;100.00;99047.58;4130891;84;21078;-84
2022/12/21 10:17:28;;;;;;;151.07;68.50;;;;;;;-0.41;100.00;99047.14;4129096;84;21047;-84
2022/12/21 10:23:35;;;;;;;142.30;66.90;;;;;;;-0.13;100.00;99036.55;4130526;84;21053;-85
2022/12/21 10:29:39;;;;;;;155.87;69.70;;;;;;;-0.05;100.00;99046.59;4130255;84;21040;-83
2022/12/21 10:35:41;;;;;;;160.90;72.80;;;;;;;0.09;100.00;99031.19;4132470;84;21002;-84
2022/12/21 10:41:47;;;;;;;165.88;74.45;;;;;;;0.13;100.00;99034.85;4149410;84;21655;-85
2022/12/21 10:47:49;;;;;;;142.75;63.95;;;;;;;0.22;100.00;99033.58;4160437;83;21058;-84
2022/12/21 10:54:03;;;;;;;139.85;66.20;;;;;;;0.22;100.00;99022.81;4153037;83;22216;-85
2022/12/21 11:00:26;;;;;;;140.25;60.67;;;;;;;0.29;100.00;99036.62;4149838;84;21002;-85
2022/12/21 11:06:28;;;;;;;148.35;67.67;;;;;;;0.31;100.00;99012.34;4152690;83;20992;-84
2022/12/21 11:12:31;;;;;;;134.80;64.90;;;;;;;0.35;100.00;99029.47;4154170;84;21051;-85
2022/12/21 11:18:48;;;;;;;150.07;69.30;;;;;;;0.48;100.00;99019.18;4151655;83;21071;-83
2022/12/21 11:24:52;;;;;;;152.78;71.22;;;;;;;0.58;100.00;99008.70;4155768;83;20992;-84
2022/12/21 11:31:02;;;;;;;157.72;76.05;;;;;;;0.68;100.00;98995.75;4128220;83;21045;-84
2022/12/21 11:37:09;;;;;;;157.00;77.30;;;;;;;0.86;100.00;98981.80;4150200;84;21985;-84
2022/12/21 11:43:18;;;;;;;128.72;63.20;;;;;;;0.93;100.00;98975.39;4139758;84;21181;-84
2022/12/21 11:49:46;;;;;;;149.42;71.55;;;;;;;1.00;100.00;98969.00;4131104;85;21054;-85
2022/12/21 11:56:05;;;;;;;124.25;59.85;;;;;;;1.02;100.00;98967.57;4094750;86;21107;-84
2022/12/21 12:02:37;;;;;;;126.20;59.38;;;;;;;1.18;100.00;98952.55;4079779;86;21036;-83
2022/12/21 12:09:16;;;;;;;128.32;57.38;;;;;;;1.28;100.00;98942.83;4172397;84;21059;-84
2022/12/21 12:15:35;;;;;;;123.30;58.50;;;;;;;1.39;100.00;98953.52;4165094;84;20972;-84
2022/12/21 12:21:58;;;;;;;126.18;62.60;;;;;;;1.35;100.00;98953.12;4127704;85;21019;-83
2022/12/21 12:28:13;;;;;;;130.97;62.73;;;;;;;1.32;100.00;98947.81;4125472;84;20990;-83
2022/12/21 12:34:36;;;;;;;129.75;63.33;;;;;;;1.16;100.00;98941.28;4138128;85;21133;-84
2022/12/21 12:40:55;;;;;;;131.85;62.00;;;;;;;1.05;100.00;98948.08;4167193;83;22008;-83
2022/12/21 12:47:17;;;;;;;129.32;63.63;;;;;;;1.06;100.00;98936.75;4119182;85;22139;-84
2022/12/21 12:53:59;;;;;;;140.62;69.27;;;;;;;1.06;100.00;98933.50;4086744;84;21034;-83
2022/12/21 13:00:10;;;;;;;156.15;72.45;;;;;;;0.99;100.00;98935.05;4097989;85;21507;-84
2022/12/21 13:06:36;;;;;;;142.70;66.67;;;;;;;1.08;100.00;98935.31;4108980;84;21019;-84
2022/12/21 13:13:19;;;;;;;130.77;65.23;;;;;;;1.09;100.00;98941.51;4119732;84;22044;-83
2022/12/21 13:19:22;;;;;;;135.90;67.55;;;;;;;1.06;100.00;98959.12;4096717;84;20991;-83
2022/12/21 13:25:36;;;;;;;136.52;64.95;;;;;;;1.09;100.00;98961.73;4101105;85;21062;-83
2022/12/21 13:31:49;;;;;;;128.68;63.17;;;;;;;0.94;100.00;98969.69;4104579;84;21496;-83
2022/12/21 13:38:00;;;;;;;144.70;66.15;;;;;;;0.93;100.00;98971.34;4085903;85;21110;-83
2022/12/21 13:44:15;;;;;;;141.97;65.95;;;;;;;0.95;100.00;98973.98;4123169;83;21110;-84
2022/12/21 13:50:44;;;;;;;141.97;65.07;;;;;;;0.93;100.00;98972.69;4148145;84;21655;-83
2022/12/21 13:57:18;;;;;;;144.37;71.70;;;;;;;0.95;100.00;98963.75;4134327;84;20952;-83
2022/12/21 14:03:44;;;;;;;152.38;72.72;;;;;;;0.93;100.00;98956.52;4147937;83;21008;-84
2022/12/21 14:10:26;;;;;;;161.25;75.05;;;;;;;0.93;100.00;98963.26;4129246;84;21034;-83
2022/12/21 14:16:32;;;;;;;157.85;74.20;;;;;;;0.93;100.00;98940.34;4133164;84;21023;-84
2022/12/21 14:22:45;;;;;;;151.65;70.95;;;;;;;0.88;100.00;98944.53;4129695;84;21958;-85
2022/12/21 14:28:47;;;;;;;150.87;75.10;;;;;;;0.90;100.00;98951.22;4131807;84;20992;-85
2022/12/21 14:34:53;;;;;;;190.20;91.32;;;;;;;0.97;100.00;98952.88;4132003;84;21613;-83
2022/12/21 14:40:59;;;;;;;174.62;85.50;;;;;;;1.03;100.00;98963.79;4129138;84;21016;-84
2022/12/21 14:47:12;;;;;;;154.97;77.42;;;;;;;1.01;100.00;98960.61;4122402;84;21002;-84
2022/12/21 14:53:28;;;;;;;144.22;69.90;;;;;;;0.92;100.00;98968.42;4169627;84;21029;-84
2022/12/21 14:59:52;;;;;;;151.37;78.05;;;;;;;0.90;100.00;98963.34;4177544;84;21015;-84
2022/12/21 15:06:05;;;;;;;161.70;81.12;;;;;;;0.87;100.00;98965.31;4173420;83;21515;-85
2022/12/21 15:12:42;;;;;;;135.07;67.67;;;;;;;0.93;100.00;98974.05;4166001;84;21479;-84
2022/12/21 15:26:00;;;;;;;137.10;69.10;;;;;;;0.68;100.00;98977.44;4170649;84;21441;-84
2022/12/21 15:32:07;;;;;;;161.10;72.85;;;;;;;0.71;100.00;98974.11;4137410;85;21008;-85
2022/12/21 15:38:24;;;;;;;159.18;75.20;;;;;;;0.74;100.00;98963.52;4138657;85;21028;-86
2022/12/21 15:44:48;;;;;;;131.65;61.45;;;;;;;0.78;100.00;98963.16;4147203;84;21006;-84
2022/12/21 15:50:50;;;;;;;129.75;62.80;;;;;;;0.71;100.00;98961.45;4144963;84;21042;-85
2022/12/21 15:56:59;;;;;;;135.60;64.82;;;;;;;0.65;100.00;98967.28;4148335;83;21010;-84
2022/12/21 16:03:02;;;;;;;133.18;63.42;;;;;;;0.73;100.00;98955.75;4149040;84;21094;-83
2022/12/21 16:09:03;;;;;;;143.68;64.32;;;;;;;0.77;100.00;98957.50;4148485;83;21008;-84
2022/12/21 16:15:39;;;;;;;136.88;62.20;;;;;;;0.87;100.00;98953.73;4150867;84;21008;-85
2022/12/21 16:21:44;;;;;;;116.97;57.53;;;;;;;0.83;100.00;98956.25;4152320;84;20976;-84
2022/12/21 16:27:48;;;;;;;112.22;54.27;;;;;;;0.79;100.00;98943.72;4143094;84;21649;-84
2022/12/21 16:33:56;;;;;;;112.37;55.83;;;;;;;0.76;100.00;98938.95;4128448;84;21086;-85
2022/12/21 16:40:05;;;;;;;116.50;59.13;;;;;;;0.85;100.00;98930.34;4129352;84;20984;-86
2022/12/21 16:46:07;;;;;;;130.03;61.63;;;;;;;0.93;100.00;98916.09;4127513;84;21046;-85
2022/12/21 16:52:47;;;;;;;120.17;58.78;;;;;;;0.98;100.00;98922.69;4018985;83;9999739;-86
2022/12/21 16:58:59;;;;;;;132.50;65.28;;;;;;;0.90;100.00;98915.38;4133922;83;21071;-86
2022/12/21 17:05:24;;;;;;;141.40;67.03;;;;;;;0.87;100.00;98926.23;4131389;84;21028;-86
2022/12/21 17:11:30;;;;;;;145.05;71.33;;;;;;;0.92;100.00;98921.25;4129944;84;21035;-87
2022/12/21 17:17:48;;;;;;;135.85;69.53;;;;;;;0.86;100.00;98911.73;4129501;84;21136;-86
2022/12/21 17:30:15;;;;;;;182.75;93.15;;;;;;;0.82;100.00;98900.78;4134461;84;21015;-87
2022/12/21 17:36:18;;;;;;;182.00;91.45;;;;;;;0.77;100.00;98894.72;4137999;84;21023;-86
2022/12/21 17:43:05;;;;;;;;;;;;;;;;;;;;;
2022/12/21 17:49:11;;;;;;;208.65;109.07;;;;;;;0.70;100.00;98880.39;3938144;87;21641;-87
2022/12/21 17:55:18;;;;;;;221.60;112.57;;;;;;;0.77;100.00;98872.63;3919231;89;21111;-87
2022/12/21 18:01:24;;;;;;;194.28;102.30;;;;;;;0.67;100.00;98866.74;4137194;84;21574;-88
2022/12/21 18:07:26;;;;;;;199.17;99.17;;;;;;;0.65;100.00;98872.98;4124496;84;21477;-87
2022/12/21 18:13:28;;;;;;;188.82;95.40;;;;;;;0.53;100.00;98862.03;4147522;84;21055;-88
2022/12/21 18:19:29;;;;;;;204.32;106.47;;;;;;;0.52;100.00;98864.49;4168024;84;21047;-87
2022/12/21 18:25:31;;;;;;;216.55;110.85;;;;;;;0.56;100.00;98869.48;4150180;83;21919;-87
2022/12/21 18:31:32;;;;;;;240.68;126.45;;;;;;;0.59;100.00;98868.31;4153437;83;21103;-87
2022/12/21 18:37:33;;;;;;;233.35;121.62;;;;;;;0.50;100.00;98855.92;4173279;82;21997;-87
2022/12/21 18:43:37;;;;;;;227.40;116.90;;;;;;;0.46;100.00;98850.36;4150842;84;21042;-87
2022/12/21 18:49:38;;;;;;;222.73;111.37;;;;;;;0.53;100.00;98843.17;4042550;83;10000190;-87
2022/12/21 18:55:40;;;;;;;209.40;105.75;;;;;;;0.56;100.00;98831.23;4174323;84;22025;-86
2022/12/21 19:01:46;;;;;;;207.57;107.00;;;;;;;0.63;100.00;98825.36;4165345;82;21012;-86
2022/12/21 19:07:54;;;;;;;199.62;106.95;;;;;;;0.55;100.00;98831.55;4130848;84;21489;-87
2022/12/21 19:14:01;;;;;;;209.37;108.22;;;;;;;0.51;100.00;98835.41;4062346;85;21067;-86
2022/12/21 19:20:11;;;;;;;197.90;101.40;;;;;;;0.58;100.00;98820.91;4169637;84;21030;-86
2022/12/21 19:26:27;;;;;;;207.30;106.97;;;;;;;0.61;100.00;98818.16;4146250;84;21147;-86
2022/12/21 19:32:45;;;;;;;206.72;106.40;;;;;;;0.56;100.00;98809.68;4156990;83;21263;-86
2022/12/21 19:38:59;;;;;;;215.90;111.35;;;;;;;0.63;100.00;98819.42;4152003;84;21614;-87
2022/12/21 19:45:42;;;;;;;204.97;108.10;;;;;;;0.52;100.00;98817.36;4118947;84;22085;-86
2022/12/21 19:52:14;;;;;;;196.65;101.22;;;;;;;0.48;100.00;98818.53;4119065;85;20995;-85
2022/12/21 20:05:29;;;;;;;224.22;117.00;;;;;;;0.33;100.00;98826.25;4048643;84;22071;-86
2022/12/21 20:12:05;;;;;;;234.15;121.95;;;;;;;0.52;100.00;98833.52;3926662;89;21476;-86
2022/12/21 20:18:43;;;;;;;230.27;117.33;;;;;;;0.53;100.00;98826.47;3996825;86;21052;-86
2022/12/21 20:24:58;;;;;;;228.80;116.40;;;;;;;0.51;100.00;98830.02;3974662;88;21119;-87
2022/12/21 20:31:57;;;;;;;217.20;111.57;;;;;;;0.55;100.00;98836.93;4139270;84;21011;-86
2022/12/21 20:38:31;;;;;;;217.37;108.40;;;;;;;0.55;100.00;98833.66;4143489;83;21027;-86
2022/12/21 20:51:29;;;;;;;210.80;99.22;;;;;;;0.50;100.00;98834.37;4141106;83;21058;-86
2022/12/21 20:58:02;;;;;;;;;;;;;;;;;;;;;
2022/12/21 21:04:19;;;;;;;194.40;92.57;;;;;;;0.38;100.00;98821.50;3997458;85;21042;-86
2022/12/21 21:10:23;;;;;;;131.82;66.30;;;;;;;0.41;100.00;98822.22;4139520;83;21631;-86
2022/12/21 21:16:33;;;;;;;182.67;85.83;;;;;;;0.39;100.00;98820.95;4143018;83;21024;-85
2022/12/21 21:29:46;;;;;;;147.90;70.25;;;;;;;0.52;100.00;98827.56;4140797;84;21062;-85
2022/12/21 21:42:53;;;;;;;152.17;68.25;;;;;;;0.53;100.00;98808.97;4140330;84;21095;-85
2022/12/21 21:49:25;;;;;;;138.77;63.20;;;;;;;0.55;100.00;98823.47;4128368;84;21536;-85
2022/12/21 21:55:32;;;;;;;147.37;65.08;;;;;;;0.67;100.00;98824.44;4126100;84;21043;-85
2022/12/21 22:01:56;;;;;;;;;;;;;;;;;;;;;
2022/12/21 22:08:01;;;;;;;145.05;64.65;;;;;;;0.76;100.00;98813.66;4121270;84;21469;-86
2022/12/21 22:14:20;;;;;;;150.90;67.10;;;;;;;0.75;100.00;98818.25;4130432;84;21011;-84
2022/12/21 22:33:16;;;;;;;161.12;72.75;;;;;;;0.86;100.00;98813.38;3993567;88;21082;-84
2022/12/21 22:45:44;;;;;;;141.70;63.00;;;;;;;0.90;100.00;98808.92;4136478;84;21032;-84
2022/12/21 22:51:49;;;;;;;130.60;62.48;;;;;;;0.73;100.00;98811.05;4137227;83;21516;-83
2022/12/21 22:57:57;;;;;;;92.43;46.97;;;;;;;0.64;100.00;98808.91;4161332;84;21018;-83
2022/12/21 23:04:18;;;;;;;132.95;60.43;;;;;;;0.71;100.00;98822.69;4139679;84;21538;-83
2022/12/21 23:10:34;;;;;;;120.50;56.85;;;;;;;0.73;100.00;98823.18;4017549;86;21017;-84
2022/12/21 23:16:42;;;;;;;127.47;62.77;;;;;;;0.67;100.00;98825.79;4036960;86;21072;-84
2022/12/21 23:29:14;;;;;;;131.50;59.00;;;;;;;0.65;100.00;98821.80;4010818;87;21521;-84
